Gregg, Texas
Current Conditions -  °F | °C
As of 4:15 AM on Monday 26 Jan 2015 (Local Time) from KEDC Reporting Station
Clear Clear  
Wind Chill: 44°   Ceiling: Unl
Heat Index: 46°   Visibility: 10mi
Dew Point: 32°   Wind: 6mph
Humidity: 57%   Direction: 210°SSW
Pressure: 30.22"   Gusts: NA
Location:  30.352°N, 97.5205°W
Report Text: KEDC 261015Z AUTO 21005KT 10SM CLR 08/00 A3022 RMK AO2
Loading
Personal Weather Stations






























Interactive Weather Map New forecast layout! Learn more

10-Day Weather Forecast

Advertisements
Track Severe Weather on mobile